sensor_id;sensor_type;location;lat;lon;timestamp;temperature;humidity
4757;DHT22;2392;52.578;13.426;2023-11-19T00:02:14;5.70;99.90
4757;DHT22;2392;52.578;13.426;2023-11-19T00:04:41;5.70;99.90
4757;DHT22;2392;52.578;13.426;2023-11-19T00:07:07;5.70;99.90
4757;DHT22;2392;52.578;13.426;2023-11-19T00:09:36;5.70;99.90
4757;DHT22;2392;52.578;13.426;2023-11-19T00:12:06;5.70;99.90
4757;DHT22;2392;52.578;13.426;2023-11-19T00:14:33;5.70;99.90
4757;DHT22;2392;52.578;13.426;2023-11-19T00:17:00;5.60;99.90
4757;DHT22;2392;52.578;13.426;2023-11-19T00:19:25;5.60;99.90
4757;DHT22;2392;52.578;13.426;2023-11-19T00:21:52;5.60;99.90
4757;DHT22;2392;52.578;13.426;2023-11-19T00:24:19;5.60;99.90
4757;DHT22;2392;52.578;13.426;2023-11-19T00:26:46;5.60;99.90
4757;DHT22;2392;52.578;13.426;2023-11-19T00:29:14;5.60;99.90
4757;DHT22;2392;52.578;13.426;2023-11-19T00:31:41;5.60;99.90
4757;DHT22;2392;52.578;13.426;2023-11-19T00:34:08;5.60;99.90
4757;DHT22;2392;52.578;13.426;2023-11-19T00:36:35;5.60;99.90
4757;DHT22;2392;52.578;13.426;2023-11-19T00:39:02;5.60;99.90
4757;DHT22;2392;52.578;13.426;2023-11-19T00:41:29;5.60;99.90
4757;DHT22;2392;52.578;13.426;2023-11-19T00:43:56;5.60;99.90
4757;DHT22;2392;52.578;13.426;2023-11-19T00:46:24;5.60;99.90
4757;DHT22;2392;52.578;13.426;2023-11-19T00:48:50;5.60;99.90
4757;DHT22;2392;52.578;13.426;2023-11-19T00:51:17;5.50;99.90
4757;DHT22;2392;52.578;13.426;2023-11-19T00:53:44;5.50;99.90
4757;DHT22;2392;52.578;13.426;2023-11-19T00:56:11;5.60;99.90
4757;DHT22;2392;52.578;13.426;2023-11-19T00:58:38;5.60;99.90
4757;DHT22;2392;52.578;13.426;2023-11-19T01:01:05;5.60;99.90
4757;DHT22;2392;52.578;13.426;2023-11-19T01:03:33;5.60;99.90
4757;DHT22;2392;52.578;13.426;2023-11-19T01:06:00;5.60;99.90
4757;DHT22;2392;52.578;13.426;2023-11-19T01:08:28;5.60;99.90
4757;DHT22;2392;52.578;13.426;2023-11-19T01:10:54;5.70;99.90
4757;DHT22;2392;52.578;13.426;2023-11-19T01:13:21;5.60;99.90
4757;DHT22;2392;52.578;13.426;2023-11-19T01:15:48;5.70;99.90
4757;DHT22;2392;52.578;13.426;2023-11-19T01:18:14;5.70;99.90
4757;DHT22;2392;52.578;13.426;2023-11-19T01:20:43;5.70;99.90
4757;DHT22;2392;52.578;13.426;2023-11-19T01:23:10;5.70;99.90
4757;DHT22;2392;52.578;13.426;2023-11-19T01:25:36;5.70;99.90
4757;DHT22;2392;52.578;13.426;2023-11-19T01:28:03;5.70;99.90
4757;DHT22;2392;52.578;13.426;2023-11-19T01:30:30;5.70;99.90
4757;DHT22;2392;52.578;13.426;2023-11-19T01:32:57;5.60;99.90
4757;DHT22;2392;52.578;13.426;2023-11-19T01:35:24;5.60;99.90
4757;DHT22;2392;52.578;13.426;2023-11-19T01:37:52;5.60;99.90
4757;DHT22;2392;52.578;13.426;2023-11-19T01:40:20;5.60;99.90
4757;DHT22;2392;52.578;13.426;2023-11-19T01:42:47;5.60;99.90
4757;DHT22;2392;52.578;13.426;2023-11-19T01:45:22;5.60;99.90
4757;DHT22;2392;52.578;13.426;2023-11-19T01:47:53;5.60;99.90
4757;DHT22;2392;52.578;13.426;2023-11-19T01:50:20;5.60;99.90
4757;DHT22;2392;52.578;13.426;2023-11-19T01:52:48;5.60;99.90
4757;DHT22;2392;52.578;13.426;2023-11-19T01:55:16;5.70;99.90
4757;DHT22;2392;52.578;13.426;2023-11-19T01:57:43;5.70;99.90
4757;DHT22;2392;52.578;13.426;2023-11-19T02:00:10;5.70;99.90
4757;DHT22;2392;52.578;13.426;2023-11-19T02:02:43;5.70;99.90
4757;DHT22;2392;52.578;13.426;2023-11-19T02:05:11;5.70;99.90
4757;DHT22;2392;52.578;13.426;2023-11-19T02:07:38;5.70;99.90
4757;DHT22;2392;52.578;13.426;2023-11-19T02:10:06;5.80;99.90
4757;DHT22;2392;52.578;13.426;2023-11-19T02:12:40;5.80;99.90
4757;DHT22;2392;52.578;13.426;2023-11-19T02:15:08;5.80;99.90
4757;DHT22;2392;52.578;13.426;2023-11-19T02:17:35;5.90;99.90
4757;DHT22;2392;52.578;13.426;2023-11-19T02:20:03;5.90;99.90
4757;DHT22;2392;52.578;13.426;2023-11-19T02:22:31;5.80;99.90
4757;DHT22;2392;52.578;13.426;2023-11-19T02:25:03;5.80;99.90
4757;DHT22;2392;52.578;13.426;2023-11-19T02:27:43;5.80;99.90
4757;DHT22;2392;52.578;13.426;2023-11-19T02:30:11;5.80;99.90
4757;DHT22;2392;52.578;13.426;2023-11-19T02:32:41;5.80;99.90
4757;DHT22;2392;52.578;13.426;2023-11-19T02:35:08;5.80;99.90
4757;DHT22;2392;52.578;13.426;2023-11-19T02:37:35;5.90;99.90
4757;DHT22;2392;52.578;13.426;2023-11-19T02:40:01;5.90;99.90
4757;DHT22;2392;52.578;13.426;2023-11-19T02:42:30;5.90;99.90
4757;DHT22;2392;52.578;13.426;2023-11-19T02:44:58;5.90;99.90
4757;DHT22;2392;52.578;13.426;2023-11-19T02:47:25;6.00;99.90
4757;DHT22;2392;52.578;13.426;2023-11-19T02:49:53;6.00;99.90
4757;DHT22;2392;52.578;13.426;2023-11-19T02:52:20;6.00;99.90
4757;DHT22;2392;52.578;13.426;2023-11-19T02:54:47;6.00;99.90
4757;DHT22;2392;52.578;13.426;2023-11-19T02:57:13;6.00;99.90
4757;DHT22;2392;52.578;13.426;2023-11-19T02:59:40;6.00;99.90
4757;DHT22;2392;52.578;13.426;2023-11-19T03:02:10;6.00;99.90
4757;DHT22;2392;52.578;13.426;2023-11-19T03:04:38;5.90;99.90
4757;DHT22;2392;52.578;13.426;2023-11-19T03:07:05;6.00;99.90
4757;DHT22;2392;52.578;13.426;2023-11-19T03:09:33;6.00;99.90
4757;DHT22;2392;52.578;13.426;2023-11-19T03:12:00;6.00;99.90
4757;DHT22;2392;52.578;13.426;2023-11-19T03:14:27;6.10;99.90
4757;DHT22;2392;52.578;13.426;2023-11-19T03:16:54;6.00;99.90
4757;DHT22;2392;52.578;13.426;2023-11-19T03:19:22;6.10;99.90
4757;DHT22;2392;52.578;13.426;2023-11-19T03:21:49;6.10;99.90
4757;DHT22;2392;52.578;13.426;2023-11-19T03:24:15;6.10;99.90
4757;DHT22;2392;52.578;13.426;2023-11-19T03:26:42;6.00;99.90
4757;DHT22;2392;52.578;13.426;2023-11-19T03:29:09;6.10;99.90
4757;DHT22;2392;52.578;13.426;2023-11-19T03:31:35;6.10;99.90
4757;DHT22;2392;52.578;13.426;2023-11-19T03:34:03;6.00;99.90
4757;DHT22;2392;52.578;13.426;2023-11-19T03:36:35;6.00;99.90
4757;DHT22;2392;52.578;13.426;2023-11-19T03:39:01;6.00;99.90
4757;DHT22;2392;52.578;13.426;2023-11-19T03:41:29;6.00;99.90
4757;DHT22;2392;52.578;13.426;2023-11-19T03:43:56;6.00;99.90
4757;DHT22;2392;52.578;13.426;2023-11-19T03:46:22;5.90;99.90
4757;DHT22;2392;52.578;13.426;2023-11-19T03:48:50;5.90;99.90
4757;DHT22;2392;52.578;13.426;2023-11-19T03:51:17;5.90;99.90
4757;DHT22;2392;52.578;13.426;2023-11-19T03:53:45;5.80;99.90
4757;DHT22;2392;52.578;13.426;2023-11-19T03:56:12;5.70;99.90
4757;DHT22;2392;52.578;13.426;2023-11-19T03:58:39;5.70;99.90
4757;DHT22;2392;52.578;13.426;2023-11-19T04:01:11;5.70;99.90
4757;DHT22;2392;52.578;13.426;2023-11-19T04:03:38;5.60;99.90
4757;DHT22;2392;52.578;13.426;2023-11-19T04:06:05;5.60;99.90
4757;DHT22;2392;52.578;13.426;2023-11-19T04:08:32;5.50;99.90
4757;DHT22;2392;52.578;13.426;2023-11-19T04:11:04;5.60;99.90
4757;DHT22;2392;52.578;13.426;2023-11-19T04:13:30;5.50;99.90
4757;DHT22;2392;52.578;13.426;2023-11-19T04:15:57;5.50;99.90
4757;DHT22;2392;52.578;13.426;2023-11-19T04:18:24;5.60;99.90
4757;DHT22;2392;52.578;13.426;2023-11-19T04:20:51;5.50;99.90
4757;DHT22;2392;52.578;13.426;2023-11-19T04:23:17;5.50;99.90
4757;DHT22;2392;52.578;13.426;2023-11-19T04:25:44;5.50;99.90
4757;DHT22;2392;52.578;13.426;2023-11-19T04:28:12;5.50;99.90
4757;DHT22;2392;52.578;13.426;2023-11-19T04:30:40;5.50;99.90
4757;DHT22;2392;52.578;13.426;2023-11-19T04:33:07;5.60;99.90
4757;DHT22;2392;52.578;13.426;2023-11-19T04:35:33;5.60;99.90
4757;DHT22;2392;52.578;13.426;2023-11-19T04:38:00;5.60;99.90
4757;DHT22;2392;52.578;13.426;2023-11-19T04:40:27;5.70;99.90
4757;DHT22;2392;52.578;13.426;2023-11-19T04:42:53;5.70;99.90
4757;DHT22;2392;52.578;13.426;2023-11-19T04:45:22;5.70;99.90
4757;DHT22;2392;52.578;13.426;2023-11-19T04:47:48;5.70;99.90
4757;DHT22;2392;52.578;13.426;2023-11-19T04:50:15;5.70;99.90
4757;DHT22;2392;52.578;13.426;2023-11-19T04:52:42;5.70;99.90
4757;DHT22;2392;52.578;13.426;2023-11-19T04:55:10;5.70;99.90
4757;DHT22;2392;52.578;13.426;2023-11-19T04:57:38;5.70;99.90
4757;DHT22;2392;52.578;13.426;2023-11-19T05:00:05;5.60;99.90
4757;DHT22;2392;52.578;13.426;2023-11-19T05:02:34;5.60;99.90
4757;DHT22;2392;52.578;13.426;2023-11-19T05:05:01;5.60;99.90
4757;DHT22;2392;52.578;13.426;2023-11-19T05:07:29;5.60;99.90
4757;DHT22;2392;52.578;13.426;2023-11-19T05:09:55;5.50;99.90
4757;DHT22;2392;52.578;13.426;2023-11-19T05:12:22;5.50;99.90
4757;DHT22;2392;52.578;13.426;2023-11-19T05:14:49;5.50;99.90
4757;DHT22;2392;52.578;13.426;2023-11-19T05:17:16;5.40;99.90
4757;DHT22;2392;52.578;13.426;2023-11-19T05:19:44;5.40;99.90
4757;DHT22;2392;52.578;13.426;2023-11-19T05:22:11;5.40;99.90
4757;DHT22;2392;52.578;13.426;2023-11-19T05:24:38;5.50;99.90
4757;DHT22;2392;52.578;13.426;2023-11-19T05:27:06;5.40;99.90
4757;DHT22;2392;52.578;13.426;2023-11-19T05:29:33;5.40;99.90
4757;DHT22;2392;52.578;13.426;2023-11-19T05:32:00;5.40;99.90
4757;DHT22;2392;52.578;13.426;2023-11-19T05:34:27;5.40;99.90
4757;DHT22;2392;52.578;13.426;2023-11-19T05:36:55;5.40;99.90
4757;DHT22;2392;52.578;13.426;2023-11-19T05:39:22;5.30;99.90
4757;DHT22;2392;52.578;13.426;2023-11-19T05:41:49;5.30;99.90
4757;DHT22;2392;52.578;13.426;2023-11-19T05:44:16;5.30;99.90
4757;DHT22;2392;52.578;13.426;2023-11-19T05:46:43;5.40;99.90
4757;DHT22;2392;52.578;13.426;2023-11-19T05:49:10;5.40;99.90
4757;DHT22;2392;52.578;13.426;2023-11-19T05:51:37;5.40;99.90
4757;DHT22;2392;52.578;13.426;2023-11-19T05:54:06;5.40;99.90
4757;DHT22;2392;52.578;13.426;2023-11-19T05:56:33;5.30;99.90
4757;DHT22;2392;52.578;13.426;2023-11-19T05:59:00;5.30;99.90
4757;DHT22;2392;52.578;13.426;2023-11-19T06:01:28;5.30;99.90
4757;DHT22;2392;52.578;13.426;2023-11-19T06:03:55;5.40;99.90
4757;DHT22;2392;52.578;13.426;2023-11-19T06:06:22;5.30;99.90
4757;DHT22;2392;52.578;13.426;2023-11-19T06:08:49;5.30;99.90
4757;DHT22;2392;52.578;13.426;2023-11-19T06:11:17;5.30;99.90
4757;DHT22;2392;52.578;13.426;2023-11-19T06:13:46;5.30;99.90
4757;DHT22;2392;52.578;13.426;2023-11-19T06:16:13;5.40;99.90
4757;DHT22;2392;52.578;13.426;2023-11-19T06:18:40;5.40;99.90
4757;DHT22;2392;52.578;13.426;2023-11-19T06:21:07;5.30;99.90
4757;DHT22;2392;52.578;13.426;2023-11-19T06:23:33;5.40;99.90
4757;DHT22;2392;52.578;13.426;2023-11-19T06:26:00;5.50;99.90
4757;DHT22;2392;52.578;13.426;2023-11-19T06:28:28;5.40;99.90
4757;DHT22;2392;52.578;13.426;2023-11-19T06:30:54;5.40;99.90
4757;DHT22;2392;52.578;13.426;2023-11-19T06:33:22;5.50;99.90
4757;DHT22;2392;52.578;13.426;2023-11-19T06:35:49;5.50;99.90
4757;DHT22;2392;52.578;13.426;2023-11-19T06:38:16;5.50;99.90
4757;DHT22;2392;52.578;13.426;2023-11-19T06:40:42;5.50;99.90
4757;DHT22;2392;52.578;13.426;2023-11-19T06:43:09;5.50;99.90
4757;DHT22;2392;52.578;13.426;2023-11-19T06:45:37;5.50;99.90
4757;DHT22;2392;52.578;13.426;2023-11-19T06:48:04;5.50;99.90
4757;DHT22;2392;52.578;13.426;2023-11-19T06:50:31;5.50;99.90
4757;DHT22;2392;52.578;13.426;2023-11-19T06:52:58;5.50;99.90
4757;DHT22;2392;52.578;13.426;2023-11-19T06:55:24;5.50;99.90
4757;DHT22;2392;52.578;13.426;2023-11-19T06:57:51;5.50;99.90
4757;DHT22;2392;52.578;13.426;2023-11-19T07:00:17;5.50;99.90
4757;DHT22;2392;52.578;13.426;2023-11-19T07:02:45;5.50;99.90
4757;DHT22;2392;52.578;13.426;2023-11-19T07:05:12;5.50;99.90
4757;DHT22;2392;52.578;13.426;2023-11-19T07:07:38;5.50;99.90
4757;DHT22;2392;52.578;13.426;2023-11-19T07:10:06;5.60;99.90
4757;DHT22;2392;52.578;13.426;2023-11-19T07:12:34;5.60;99.90
4757;DHT22;2392;52.578;13.426;2023-11-19T07:15:01;5.50;99.90
4757;DHT22;2392;52.578;13.426;2023-11-19T07:17:29;5.60;99.90
4757;DHT22;2392;52.578;13.426;2023-11-19T07:19:57;5.60;99.90
4757;DHT22;2392;52.578;13.426;2023-11-19T07:22:25;5.60;99.90
4757;DHT22;2392;52.578;13.426;2023-11-19T07:24:51;5.60;99.90
4757;DHT22;2392;52.578;13.426;2023-11-19T07:27:18;5.60;99.90
4757;DHT22;2392;52.578;13.426;2023-11-19T07:29:45;5.60;99.90
4757;DHT22;2392;52.578;13.426;2023-11-19T07:32:11;5.60;99.90
4757;DHT22;2392;52.578;13.426;2023-11-19T07:34:39;5.60;99.90
4757;DHT22;2392;52.578;13.426;2023-11-19T07:37:07;5.60;99.90
4757;DHT22;2392;52.578;13.426;2023-11-19T07:39:34;5.60;99.90
4757;DHT22;2392;52.578;13.426;2023-11-19T07:42:01;5.70;99.90
4757;DHT22;2392;52.578;13.426;2023-11-19T07:44:29;5.70;99.90
4757;DHT22;2392;52.578;13.426;2023-11-19T07:46:55;5.70;99.90
4757;DHT22;2392;52.578;13.426;2023-11-19T07:49:22;5.70;99.90
4757;DHT22;2392;52.578;13.426;2023-11-19T07:51:49;5.70;99.90
4757;DHT22;2392;52.578;13.426;2023-11-19T07:54:17;5.80;99.90
4757;DHT22;2392;52.578;13.426;2023-11-19T07:56:43;5.80;99.90
4757;DHT22;2392;52.578;13.426;2023-11-19T07:59:10;5.90;99.90
4757;DHT22;2392;52.578;13.426;2023-11-19T08:01:37;5.90;99.90
4757;DHT22;2392;52.578;13.426;2023-11-19T08:04:04;5.90;99.90
4757;DHT22;2392;52.578;13.426;2023-11-19T08:06:30;5.90;99.90
4757;DHT22;2392;52.578;13.426;2023-11-19T08:08:57;6.00;99.90
4757;DHT22;2392;52.578;13.426;2023-11-19T08:11:26;5.90;99.90
4757;DHT22;2392;52.578;13.426;2023-11-19T08:13:52;6.00;99.90
4757;DHT22;2392;52.578;13.426;2023-11-19T08:16:19;6.00;99.90
4757;DHT22;2392;52.578;13.426;2023-11-19T08:18:46;6.00;99.90
4757;DHT22;2392;52.578;13.426;2023-11-19T08:21:12;6.00;99.90
4757;DHT22;2392;52.578;13.426;2023-11-19T08:23:39;6.00;99.90
4757;DHT22;2392;52.578;13.426;2023-11-19T08:26:06;6.10;99.90
4757;DHT22;2392;52.578;13.426;2023-11-19T08:28:34;6.10;99.90
4757;DHT22;2392;52.578;13.426;2023-11-19T08:31:01;6.10;99.90
4757;DHT22;2392;52.578;13.426;2023-11-19T08:33:29;6.10;99.90
4757;DHT22;2392;52.578;13.426;2023-11-19T08:35:56;6.20;99.90
4757;DHT22;2392;52.578;13.426;2023-11-19T08:38:23;6.30;99.90
4757;DHT22;2392;52.578;13.426;2023-11-19T08:40:50;6.40;99.90
4757;DHT22;2392;52.578;13.426;2023-11-19T08:43:17;6.40;99.90
4757;DHT22;2392;52.578;13.426;2023-11-19T08:45:45;6.40;99.90
4757;DHT22;2392;52.578;13.426;2023-11-19T08:48:12;6.50;99.90
4757;DHT22;2392;52.578;13.426;2023-11-19T08:50:38;6.60;99.90
4757;DHT22;2392;52.578;13.426;2023-11-19T08:53:05;6.60;99.90
4757;DHT22;2392;52.578;13.426;2023-11-19T08:55:32;6.70;99.90
4757;DHT22;2392;52.578;13.426;2023-11-19T08:57:59;6.70;99.90
4757;DHT22;2392;52.578;13.426;2023-11-19T09:00:26;6.80;99.90
4757;DHT22;2392;52.578;13.426;2023-11-19T09:02:54;6.90;99.90
4757;DHT22;2392;52.578;13.426;2023-11-19T09:05:21;7.00;99.90
4757;DHT22;2392;52.578;13.426;2023-11-19T09:07:47;7.10;99.90
4757;DHT22;2392;52.578;13.426;2023-11-19T09:10:15;7.10;99.90
4757;DHT22;2392;52.578;13.426;2023-11-19T09:12:41;7.10;99.90
4757;DHT22;2392;52.578;13.426;2023-11-19T09:15:09;7.10;99.90
4757;DHT22;2392;52.578;13.426;2023-11-19T09:17:36;7.10;99.90
4757;DHT22;2392;52.578;13.426;2023-11-19T09:20:06;7.10;99.90
4757;DHT22;2392;52.578;13.426;2023-11-19T09:22:33;7.20;99.90
4757;DHT22;2392;52.578;13.426;2023-11-19T09:24:59;7.20;99.90
4757;DHT22;2392;52.578;13.426;2023-11-19T09:27:26;7.30;99.90
4757;DHT22;2392;52.578;13.426;2023-11-19T09:29:53;7.40;99.90
4757;DHT22;2392;52.578;13.426;2023-11-19T09:32:23;7.50;99.90
4757;DHT22;2392;52.578;13.426;2023-11-19T09:34:49;7.60;99.90
4757;DHT22;2392;52.578;13.426;2023-11-19T09:37:17;7.60;99.90
4757;DHT22;2392;52.578;13.426;2023-11-19T09:39:44;7.70;99.90
4757;DHT22;2392;52.578;13.426;2023-11-19T09:42:11;7.80;99.90
4757;DHT22;2392;52.578;13.426;2023-11-19T09:44:38;7.90;99.90
4757;DHT22;2392;52.578;13.426;2023-11-19T09:47:06;8.00;99.90
4757;DHT22;2392;52.578;13.426;2023-11-19T09:49:33;8.10;99.90
4757;DHT22;2392;52.578;13.426;2023-11-19T09:52:02;8.20;99.90
4757;DHT22;2392;52.578;13.426;2023-11-19T09:54:30;8.40;99.90
4757;DHT22;2392;52.578;13.426;2023-11-19T09:56:57;8.60;99.90
4757;DHT22;2392;52.578;13.426;2023-11-19T09:59:28;8.80;99.90
4757;DHT22;2392;52.578;13.426;2023-11-19T10:01:56;8.90;99.90
4757;DHT22;2392;52.578;13.426;2023-11-19T10:04:24;9.10;99.90
4757;DHT22;2392;52.578;13.426;2023-11-19T10:06:52;9.30;99.90
4757;DHT22;2392;52.578;13.426;2023-11-19T10:09:18;9.50;99.90
4757;DHT22;2392;52.578;13.426;2023-11-19T10:11:46;9.50;99.90
4757;DHT22;2392;52.578;13.426;2023-11-19T10:14:13;9.60;99.90
4757;DHT22;2392;52.578;13.426;2023-11-19T10:16:40;9.60;99.90
4757;DHT22;2392;52.578;13.426;2023-11-19T10:19:09;9.70;99.90
4757;DHT22;2392;52.578;13.426;2023-11-19T10:21:38;9.80;99.90
4757;DHT22;2392;52.578;13.426;2023-11-19T10:24:05;10.00;99.90
4757;DHT22;2392;52.578;13.426;2023-11-19T10:26:32;10.10;99.90
4757;DHT22;2392;52.578;13.426;2023-11-19T10:29:01;10.20;99.90
4757;DHT22;2392;52.578;13.426;2023-11-19T10:31:27;10.20;99.90
4757;DHT22;2392;52.578;13.426;2023-11-19T10:33:54;10.10;99.90
4757;DHT22;2392;52.578;13.426;2023-11-19T10:36:21;10.00;99.90
4757;DHT22;2392;52.578;13.426;2023-11-19T10:38:53;10.00;99.90
4757;DHT22;2392;52.578;13.426;2023-11-19T10:41:29;10.20;99.90
4757;DHT22;2392;52.578;13.426;2023-11-19T10:43:57;10.60;99.90
4757;DHT22;2392;52.578;13.426;2023-11-19T10:46:38;10.70;99.90
4757;DHT22;2392;52.578;13.426;2023-11-19T10:49:06;10.70;99.90
4757;DHT22;2392;52.578;13.426;2023-11-19T10:51:33;10.70;99.90
4757;DHT22;2392;52.578;13.426;2023-11-19T10:54:03;10.60;99.90
4757;DHT22;2392;52.578;13.426;2023-11-19T10:56:32;10.60;99.90
4757;DHT22;2392;52.578;13.426;2023-11-19T10:58:59;10.60;99.90
4757;DHT22;2392;52.578;13.426;2023-11-19T11:01:32;10.60;99.90
4757;DHT22;2392;52.578;13.426;2023-11-19T11:04:00;10.60;99.90
4757;DHT22;2392;52.578;13.426;2023-11-19T11:06:29;10.80;99.90
4757;DHT22;2392;52.578;13.426;2023-11-19T11:08:56;10.90;99.90
4757;DHT22;2392;52.578;13.426;2023-11-19T11:11:24;11.00;99.90
4757;DHT22;2392;52.578;13.426;2023-11-19T11:13:53;11.40;99.90
4757;DHT22;2392;52.578;13.426;2023-11-19T11:16:22;12.00;99.90
4757;DHT22;2392;52.578;13.426;2023-11-19T11:18:52;12.40;99.90
4757;DHT22;2392;52.578;13.426;2023-11-19T11:21:23;12.90;99.90
4757;DHT22;2392;52.578;13.426;2023-11-19T11:24:09;13.20;99.90
4757;DHT22;2392;52.578;13.426;2023-11-19T11:26:53;13.60;99.90
4757;DHT22;2392;52.578;13.426;2023-11-19T11:29:30;14.00;99.90
4757;DHT22;2392;52.578;13.426;2023-11-19T11:32:06;14.50;99.90
4757;DHT22;2392;52.578;13.426;2023-11-19T11:34:45;14.90;99.90
4757;DHT22;2392;52.578;13.426;2023-11-19T11:37:18;15.20;99.90
4757;DHT22;2392;52.578;13.426;2023-11-19T11:39:47;15.20;99.90
4757;DHT22;2392;52.578;13.426;2023-11-19T11:42:33;15.20;99.90
4757;DHT22;2392;52.578;13.426;2023-11-19T11:45:01;15.40;99.90
4757;DHT22;2392;52.578;13.426;2023-11-19T11:50:47;15.70;99.90
4757;DHT22;2392;52.578;13.426;2023-11-19T11:53:16;15.50;99.90
4757;DHT22;2392;52.578;13.426;2023-11-19T11:55:55;15.10;99.90
4757;DHT22;2392;52.578;13.426;2023-11-19T11:58:41;14.70;99.90
4757;DHT22;2392;52.578;13.426;2023-11-19T12:01:14;14.30;99.90
4757;DHT22;2392;52.578;13.426;2023-11-19T12:03:46;13.80;99.90
4757;DHT22;2392;52.578;13.426;2023-11-19T12:06:14;13.50;99.90
4757;DHT22;2392;52.578;13.426;2023-11-19T12:08:41;13.10;99.90
4757;DHT22;2392;52.578;13.426;2023-11-19T12:11:07;13.00;99.90
4757;DHT22;2392;52.578;13.426;2023-11-19T12:13:52;13.00;99.90
4757;DHT22;2392;52.578;13.426;2023-11-19T12:16:21;12.80;99.90
4757;DHT22;2392;52.578;13.426;2023-11-19T12:18:47;12.70;99.90
4757;DHT22;2392;52.578;13.426;2023-11-19T12:21:29;12.70;99.90
4757;DHT22;2392;52.578;13.426;2023-11-19T12:23:58;12.60;99.90
4757;DHT22;2392;52.578;13.426;2023-11-19T12:26:34;12.50;99.90
4757;DHT22;2392;52.578;13.426;2023-11-19T12:29:01;12.40;99.90
4757;DHT22;2392;52.578;13.426;2023-11-19T12:31:31;12.40;99.90
4757;DHT22;2392;52.578;13.426;2023-11-19T12:34:05;12.40;99.90
4757;DHT22;2392;52.578;13.426;2023-11-19T12:36:33;12.30;99.90
4757;DHT22;2392;52.578;13.426;2023-11-19T12:39:00;12.30;99.90
4757;DHT22;2392;52.578;13.426;2023-11-19T12:41:27;12.30;99.90
4757;DHT22;2392;52.578;13.426;2023-11-19T12:43:54;12.30;99.90
4757;DHT22;2392;52.578;13.426;2023-11-19T12:46:21;12.20;99.90
4757;DHT22;2392;52.578;13.426;2023-11-19T12:48:49;12.20;99.90
4757;DHT22;2392;52.578;13.426;2023-11-19T12:51:16;12.20;99.90
4757;DHT22;2392;52.578;13.426;2023-11-19T12:53:51;12.20;99.90
4757;DHT22;2392;52.578;13.426;2023-11-19T12:56:20;12.00;99.90
4757;DHT22;2392;52.578;13.426;2023-11-19T12:58:48;11.90;99.90
4757;DHT22;2392;52.578;13.426;2023-11-19T13:01:16;11.80;99.90
4757;DHT22;2392;52.578;13.426;2023-11-19T13:03:44;11.80;99.90
4757;DHT22;2392;52.578;13.426;2023-11-19T13:06:13;11.70;99.90
4757;DHT22;2392;52.578;13.426;2023-11-19T13:08:41;11.70;99.90
4757;DHT22;2392;52.578;13.426;2023-11-19T13:11:10;11.70;99.90
4757;DHT22;2392;52.578;13.426;2023-11-19T13:13:57;11.80;99.90
4757;DHT22;2392;52.578;13.426;2023-11-19T13:16:24;11.80;99.90
4757;DHT22;2392;52.578;13.426;2023-11-19T13:18:52;11.80;99.90
4757;DHT22;2392;52.578;13.426;2023-11-19T13:21:18;11.90;99.90
4757;DHT22;2392;52.578;13.426;2023-11-19T13:23:45;11.80;99.90
4757;DHT22;2392;52.578;13.426;2023-11-19T13:26:13;11.90;99.90
4757;DHT22;2392;52.578;13.426;2023-11-19T13:28:40;11.80;99.90
4757;DHT22;2392;52.578;13.426;2023-11-19T13:31:07;11.90;99.90
4757;DHT22;2392;52.578;13.426;2023-11-19T13:33:33;11.90;99.90
4757;DHT22;2392;52.578;13.426;2023-11-19T13:36:01;11.80;99.90
4757;DHT22;2392;52.578;13.426;2023-11-19T13:38:31;11.90;99.90
4757;DHT22;2392;52.578;13.426;2023-11-19T13:40:58;11.90;99.90
4757;DHT22;2392;52.578;13.426;2023-11-19T13:43:26;11.90;99.90
4757;DHT22;2392;52.578;13.426;2023-11-19T13:45:54;11.90;99.90
4757;DHT22;2392;52.578;13.426;2023-11-19T13:48:20;11.90;99.90
4757;DHT22;2392;52.578;13.426;2023-11-19T13:50:47;11.90;99.90
4757;DHT22;2392;52.578;13.426;2023-11-19T13:53:14;11.90;99.90
4757;DHT22;2392;52.578;13.426;2023-11-19T13:55:41;11.90;99.90
4757;DHT22;2392;52.578;13.426;2023-11-19T13:58:08;11.90;99.90
4757;DHT22;2392;52.578;13.426;2023-11-19T14:00:36;11.80;99.90
4757;DHT22;2392;52.578;13.426;2023-11-19T14:03:03;11.80;99.90
4757;DHT22;2392;52.578;13.426;2023-11-19T14:05:30;11.80;99.90
4757;DHT22;2392;52.578;13.426;2023-11-19T14:07:56;11.70;99.90
4757;DHT22;2392;52.578;13.426;2023-11-19T14:10:23;11.70;99.90
4757;DHT22;2392;52.578;13.426;2023-11-19T14:12:50;11.70;99.90
4757;DHT22;2392;52.578;13.426;2023-11-19T14:15:17;11.70;99.90
4757;DHT22;2392;52.578;13.426;2023-11-19T14:17:45;11.70;99.90
4757;DHT22;2392;52.578;13.426;2023-11-19T14:20:11;11.80;99.90
4757;DHT22;2392;52.578;13.426;2023-11-19T14:22:39;11.80;99.90
4757;DHT22;2392;52.578;13.426;2023-11-19T14:25:07;11.70;99.90
4757;DHT22;2392;52.578;13.426;2023-11-19T14:27:35;11.70;99.90
4757;DHT22;2392;52.578;13.426;2023-11-19T14:30:04;11.70;99.90
4757;DHT22;2392;52.578;13.426;2023-11-19T14:32:31;11.70;99.90
4757;DHT22;2392;52.578;13.426;2023-11-19T14:34:59;11.60;99.90
4757;DHT22;2392;52.578;13.426;2023-11-19T14:37:25;11.60;99.90
4757;DHT22;2392;52.578;13.426;2023-11-19T14:39:52;11.50;99.90
4757;DHT22;2392;52.578;13.426;2023-11-19T14:42:19;11.50;99.90
4757;DHT22;2392;52.578;13.426;2023-11-19T14:44:45;11.60;99.90
4757;DHT22;2392;52.578;13.426;2023-11-19T14:47:12;11.60;99.90
4757;DHT22;2392;52.578;13.426;2023-11-19T14:49:39;11.50;99.90
4757;DHT22;2392;52.578;13.426;2023-11-19T14:52:07;11.60;99.90
4757;DHT22;2392;52.578;13.426;2023-11-19T14:54:34;11.60;99.90
4757;DHT22;2392;52.578;13.426;2023-11-19T14:57:01;11.60;99.90
4757;DHT22;2392;52.578;13.426;2023-11-19T14:59:28;11.60;99.90
4757;DHT22;2392;52.578;13.426;2023-11-19T15:01:55;11.60;99.90
4757;DHT22;2392;52.578;13.426;2023-11-19T15:04:22;11.60;99.90
4757;DHT22;2392;52.578;13.426;2023-11-19T15:06:49;11.60;99.90
4757;DHT22;2392;52.578;13.426;2023-11-19T15:09:17;11.50;99.90
4757;DHT22;2392;52.578;13.426;2023-11-19T15:11:46;11.50;99.90
4757;DHT22;2392;52.578;13.426;2023-11-19T15:14:14;11.50;99.90
4757;DHT22;2392;52.578;13.426;2023-11-19T15:16:42;11.50;99.90
4757;DHT22;2392;52.578;13.426;2023-11-19T15:19:09;11.50;99.90
4757;DHT22;2392;52.578;13.426;2023-11-19T15:21:35;11.50;99.90
4757;DHT22;2392;52.578;13.426;2023-11-19T15:24:02;11.50;99.90
4757;DHT22;2392;52.578;13.426;2023-11-19T15:26:34;11.50;99.90
4757;DHT22;2392;52.578;13.426;2023-11-19T15:29:01;11.60;99.90
4757;DHT22;2392;52.578;13.426;2023-11-19T15:31:28;11.50;99.90
4757;DHT22;2392;52.578;13.426;2023-11-19T15:33:54;11.50;99.90
4757;DHT22;2392;52.578;13.426;2023-11-19T15:36:21;11.40;99.90
4757;DHT22;2392;52.578;13.426;2023-11-19T15:38:48;11.40;99.90
4757;DHT22;2392;52.578;13.426;2023-11-19T15:41:15;11.40;99.90
4757;DHT22;2392;52.578;13.426;2023-11-19T15:43:43;11.40;99.90
4757;DHT22;2392;52.578;13.426;2023-11-19T15:46:10;11.40;99.90
4757;DHT22;2392;52.578;13.426;2023-11-19T15:48:37;11.40;99.90
4757;DHT22;2392;52.578;13.426;2023-11-19T15:51:05;11.50;99.90
4757;DHT22;2392;52.578;13.426;2023-11-19T15:53:32;11.40;99.90
4757;DHT22;2392;52.578;13.426;2023-11-19T15:55:59;11.40;99.90
4757;DHT22;2392;52.578;13.426;2023-11-19T15:58:27;11.40;99.90
4757;DHT22;2392;52.578;13.426;2023-11-19T16:00:55;11.40;99.90
4757;DHT22;2392;52.578;13.426;2023-11-19T16:03:22;11.40;99.90
4757;DHT22;2392;52.578;13.426;2023-11-19T16:05:48;11.40;99.90